Time;durP1;ratioP1;P1;durP2;ratioP2;P2;SDS_P1;SDS_P2;PMS_P1;PMS_P2;Temp;Humidity;BMP_temperature;BMP_pressure;BME280_temperature;BME280_humidity;BME280_pressure;Samples;Min_cycle;Max_cycle;Signal;HPM_P1;HPM_P2
2023/07/03 00:01:53;;;;;;;22.00;10.38;;;;;;;;;;5084970;28;20025;-85
2023/07/03 00:04:18;;;;;;;24.75;9.38;;;;;;;;;;5065936;28;20089;-87
2023/07/03 00:06:45;;;;;;;17.77;9.27;;;;;;;;;;5087497;22;20474;-78
2023/07/03 00:09:11;;;;;;;22.92;10.10;;;;;;;;;;5042883;28;20068;-77
2023/07/03 00:11:36;;;;;;;21.58;9.15;;;;;;;;;;5075440;28;20044;-77
2023/07/03 00:14:02;;;;;;;20.63;9.73;;;;;;;;;;5071809;28;20028;-78
2023/07/03 00:16:27;;;;;;;20.08;9.25;;;;;;;;;;5073607;28;20083;-78
2023/07/03 00:18:53;;;;;;;19.63;10.10;;;;;;;;;;5052539;28;20087;-77
2023/07/03 00:21:19;;;;;;;22.52;9.55;;;;;;;;;;5084474;28;20024;-77
2023/07/03 00:23:45;;;;;;;20.50;9.70;;;;;;;;;;5073366;28;20037;-77
2023/07/03 00:26:11;;;;;;;27.00;10.27;;;;;;;;;;5080867;28;20033;-79
2023/07/03 00:28:37;;;;;;;20.83;9.88;;;;;;;;;;5067317;28;20094;-77
2023/07/03 00:31:03;;;;;;;21.13;9.95;;;;;;;;;;5080355;28;20120;-77
2023/07/03 00:33:30;;;;;;;26.08;10.07;;;;;;;;;;5036039;28;20142;-77
2023/07/03 00:35:55;;;;;;;21.25;8.52;;;;;;;;;;5077918;28;20024;-79
2023/07/03 00:38:21;;;;;;;22.77;10.10;;;;;;;;;;5076401;28;20028;-79
2023/07/03 00:40:46;;;;;;;20.48;9.75;;;;;;;;;;5053133;28;20191;-78
2023/07/03 00:43:13;;;;;;;22.95;9.85;;;;;;;;;;5066960;28;20085;-78
2023/07/03 00:45:39;;;;;;;21.80;9.77;;;;;;;;;;5075806;28;20029;-79
2023/07/03 00:48:04;;;;;;;20.67;9.93;;;;;;;;;;5066040;28;20104;-78
2023/07/03 00:50:30;;;;;;;22.85;9.95;;;;;;;;;;5084610;28;20055;-78
2023/07/03 00:52:58;;;;;;;20.08;10.00;;;;;;;;;;5074824;28;20052;-80
2023/07/03 00:55:24;;;;;;;23.67;9.82;;;;;;;;;;5088454;28;20025;-78
2023/07/03 00:57:51;;;;;;;19.83;8.98;;;;;;;;;;5060398;28;20024;-79
2023/07/03 01:00:17;;;;;;;18.90;8.48;;;;;;;;;;5081605;28;20013;-78
2023/07/03 01:02:48;;;;;;;23.85;10.18;;;;;;;;;;5065897;28;20097;-79
2023/07/03 01:05:22;;;;;;;22.05;9.35;;;;;;;;;;5041493;28;20049;-79
2023/07/03 01:07:48;;;;;;;22.70;9.95;;;;;;;;;;5077872;28;20039;-79
2023/07/03 01:10:16;;;;;;;22.33;9.93;;;;;;;;;;5067960;28;20549;-78
2023/07/03 01:12:44;;;;;;;21.10;9.57;;;;;;;;;;5070072;28;20082;-79
2023/07/03 01:15:11;;;;;;;22.92;9.68;;;;;;;;;;5037295;28;20045;-80
2023/07/03 01:17:38;;;;;;;22.67;9.95;;;;;;;;;;5072407;28;20052;-78
2023/07/03 01:20:04;;;;;;;24.90;9.80;;;;;;;;;;5044154;28;20040;-80
2023/07/03 01:22:40;;;;;;;21.17;9.30;;;;;;;;;;5055842;28;20108;-78
2023/07/03 01:25:08;;;;;;;17.88;8.90;;;;;;;;;;5058658;28;20029;-79
2023/07/03 01:27:36;;;;;;;26.48;10.23;;;;;;;;;;5063880;28;20542;-79
2023/07/03 01:30:04;;;;;;;20.05;9.82;;;;;;;;;;5065482;28;20036;-79
2023/07/03 01:32:31;;;;;;;19.40;9.23;;;;;;;;;;5059220;28;20123;-78
2023/07/03 01:34:57;;;;;;;22.33;9.23;;;;;;;;;;5075212;28;20025;-78
2023/07/03 01:37:25;;;;;;;25.58;9.05;;;;;;;;;;5062392;28;20016;-78
2023/07/03 01:39:51;;;;;;;20.63;9.90;;;;;;;;;;5058941;28;20025;-79
2023/07/03 01:42:20;;;;;;;19.40;8.82;;;;;;;;;;5050711;28;20033;-77
2023/07/03 01:44:45;;;;;;;26.83;9.55;;;;;;;;;;5050347;28;20107;-79
2023/07/03 01:47:12;;;;;;;20.77;9.40;;;;;;;;;;5058962;28;20056;-78
2023/07/03 01:49:38;;;;;;;23.33;9.13;;;;;;;;;;5026901;28;20163;-78
2023/07/03 01:52:22;;;;;;;18.75;9.10;;;;;;;;;;5064136;28;20456;-78
2023/07/03 01:54:55;;;;;;;18.60;9.07;;;;;;;;;;5030561;28;20040;-79
2023/07/03 01:57:26;;;;;;;19.00;9.40;;;;;;;;;;5046987;28;20028;-78
2023/07/03 01:59:52;;;;;;;25.90;9.93;;;;;;;;;;5060010;28;20024;-80
2023/07/03 02:02:22;;;;;;;20.20;9.73;;;;;;;;;;5070161;28;20025;-79
2023/07/03 02:05:02;;;;;;;20.65;8.80;;;;;;;;;;5054396;28;20029;-80
2023/07/03 02:07:28;;;;;;;20.38;8.90;;;;;;;;;;5046870;28;20024;-78
2023/07/03 02:09:54;;;;;;;20.70;9.68;;;;;;;;;;5061241;28;20082;-79
2023/07/03 02:12:20;;;;;;;21.25;9.77;;;;;;;;;;5068932;28;20472;-79
2023/07/03 02:14:46;;;;;;;20.80;9.75;;;;;;;;;;5054013;28;20021;-78
2023/07/03 02:17:12;;;;;;;17.30;9.75;;;;;;;;;;5044020;28;20107;-78
2023/07/03 02:19:37;;;;;;;21.35;9.32;;;;;;;;;;5021311;28;20037;-79
2023/07/03 02:22:03;;;;;;;20.75;9.20;;;;;;;;;;5037258;28;20515;-79
2023/07/03 02:24:29;;;;;;;25.60;10.20;;;;;;;;;;5046847;28;20066;-79
2023/07/03 02:26:55;;;;;;;18.50;9.88;;;;;;;;;;5051782;28;20041;-79
2023/07/03 02:29:20;;;;;;;20.85;9.77;;;;;;;;;;5061565;28;20031;-78
2023/07/03 02:31:46;;;;;;;19.35;9.77;;;;;;;;;;5073592;28;20028;-78
2023/07/03 02:34:14;;;;;;;19.13;9.48;;;;;;;;;;5041737;28;20041;-78
2023/07/03 02:36:40;;;;;;;22.17;9.30;;;;;;;;;;5017351;28;20107;-79
2023/07/03 02:39:07;;;;;;;19.60;9.38;;;;;;;;;;5046576;28;20026;-78
2023/07/03 02:41:33;;;;;;;22.33;10.35;;;;;;;;;;5073562;28;20115;-78
2023/07/03 02:43:58;;;;;;;21.92;10.38;;;;;;;;;;5074761;28;20028;-79
2023/07/03 02:46:27;;;;;;;21.38;9.80;;;;;;;;;;5045000;28;20060;-78
2023/07/03 02:48:53;;;;;;;20.10;9.60;;;;;;;;;;5057400;28;20101;-79
2023/07/03 02:51:20;;;;;;;22.35;10.18;;;;;;;;;;5073393;28;20500;-79
2023/07/03 02:53:47;;;;;;;20.13;9.20;;;;;;;;;;5073726;28;20502;-78
2023/07/03 02:56:14;;;;;;;21.17;9.90;;;;;;;;;;5058085;28;20033;-79
2023/07/03 02:58:42;;;;;;;21.20;9.57;;;;;;;;;;5053788;28;20029;-79
2023/07/03 03:01:11;;;;;;;20.77;9.90;;;;;;;;;;5053452;28;20114;-79
2023/07/03 03:03:37;;;;;;;21.27;9.75;;;;;;;;;;5054564;28;20029;-79
2023/07/03 03:06:03;;;;;;;22.63;9.55;;;;;;;;;;5036439;28;20052;-78
2023/07/03 03:08:29;;;;;;;21.38;9.60;;;;;;;;;;5052817;28;20086;-78
2023/07/03 03:10:54;;;;;;;21.38;9.40;;;;;;;;;;5056642;28;20052;-78
2023/07/03 03:13:20;;;;;;;20.40;10.43;;;;;;;;;;5061120;28;20025;-78
2023/07/03 03:15:46;;;;;;;19.27;9.38;;;;;;;;;;5047962;28;20032;-78
2023/07/03 03:18:12;;;;;;;18.13;9.07;;;;;;;;;;5048444;28;20420;-78
2023/07/03 03:20:38;;;;;;;21.30;9.00;;;;;;;;;;5067489;28;20060;-77
2023/07/03 03:23:03;;;;;;;22.65;9.55;;;;;;;;;;5059410;28;20048;-78
2023/07/03 03:25:29;;;;;;;17.90;9.48;;;;;;;;;;5063937;28;20059;-79
2023/07/03 03:27:55;;;;;;;17.25;9.27;;;;;;;;;;5066480;28;20123;-79
2023/07/03 03:30:21;;;;;;;19.65;10.50;;;;;;;;;;5070930;28;20543;-78
2023/07/03 03:32:46;;;;;;;18.80;9.40;;;;;;;;;;5055736;28;20024;-78
2023/07/03 03:35:12;;;;;;;17.25;8.73;;;;;;;;;;5048989;28;20436;-78
2023/07/03 03:37:38;;;;;;;21.13;9.88;;;;;;;;;;5036852;28;20039;-80
2023/07/03 03:40:07;;;;;;;20.63;9.52;;;;;;;;;;5049065;28;20029;-78
2023/07/03 03:42:33;;;;;;;22.92;9.95;;;;;;;;;;5066789;28;20033;-79
2023/07/03 03:44:59;;;;;;;21.85;9.85;;;;;;;;;;5057092;28;20376;-78
2023/07/03 03:47:25;;;;;;;20.02;8.35;;;;;;;;;;5064337;28;20108;-78
2023/07/03 03:49:52;;;;;;;21.67;9.73;;;;;;;;;;5047544;28;20063;-79
2023/07/03 03:52:18;;;;;;;22.70;8.93;;;;;;;;;;5038695;28;20063;-77
2023/07/03 03:54:43;;;;;;;19.92;9.07;;;;;;;;;;5069955;28;20033;-77
2023/07/03 03:57:09;;;;;;;23.08;9.52;;;;;;;;;;5059525;28;20097;-77
2023/07/03 03:59:35;;;;;;;21.40;9.15;;;;;;;;;;5061529;28;20025;-78
2023/07/03 04:02:01;;;;;;;25.73;10.23;;;;;;;;;;5053567;28;20040;-78
2023/07/03 04:04:26;;;;;;;23.25;10.00;;;;;;;;;;5068149;28;20115;-78
2023/07/03 04:06:52;;;;;;;26.23;9.70;;;;;;;;;;5056724;28;20081;-77
2023/07/03 04:09:18;;;;;;;24.98;9.75;;;;;;;;;;5063802;28;20060;-77
2023/07/03 04:11:43;;;;;;;16.48;9.02;;;;;;;;;;5063485;28;20074;-79
2023/07/03 04:14:09;;;;;;;23.95;10.38;;;;;;;;;;5064151;28;20024;-76
2023/07/03 04:16:35;;;;;;;19.65;9.55;;;;;;;;;;5055895;28;20029;-77
2023/07/03 04:19:01;;;;;;;26.10;10.07;;;;;;;;;;5047819;28;20048;-77
2023/07/03 04:21:26;;;;;;;23.33;9.48;;;;;;;;;;5032536;28;20062;-77
2023/07/03 04:23:52;;;;;;;24.00;9.75;;;;;;;;;;5047069;28;20500;-78
2023/07/03 04:26:17;;;;;;;23.05;9.90;;;;;;;;;;5063252;28;20119;-77
2023/07/03 04:28:43;;;;;;;23.88;9.73;;;;;;;;;;5033376;28;20032;-77
2023/07/03 04:31:08;;;;;;;20.77;9.20;;;;;;;;;;5027712;28;20035;-79
2023/07/03 04:33:34;;;;;;;20.77;9.40;;;;;;;;;;5040963;28;20028;-76
2023/07/03 04:36:00;;;;;;;22.05;9.63;;;;;;;;;;5058266;28;20031;-77
2023/07/03 04:38:25;;;;;;;23.38;9.02;;;;;;;;;;5037791;28;20033;-78
2023/07/03 04:40:52;;;;;;;22.95;9.70;;;;;;;;;;5049830;28;20021;-77
2023/07/03 04:43:18;;;;;;;23.98;10.18;;;;;;;;;;5059073;28;20483;-78
2023/07/03 04:45:48;;;;;;;23.25;10.13;;;;;;;;;;5060005;28;20029;-77
2023/07/03 04:48:14;;;;;;;25.42;10.27;;;;;;;;;;5050037;28;20032;-77
2023/07/03 04:50:39;;;;;;;22.70;10.07;;;;;;;;;;5054526;28;20025;-76
2023/07/03 04:53:05;;;;;;;19.35;9.23;;;;;;;;;;5065142;28;20353;-78
2023/07/03 04:55:32;;;;;;;21.48;10.05;;;;;;;;;;5061319;28;20013;-77
2023/07/03 04:57:59;;;;;;;21.83;10.05;;;;;;;;;;5058796;28;20032;-77
2023/07/03 05:00:25;;;;;;;19.05;9.00;;;;;;;;;;5068534;28;20017;-77
2023/07/03 05:02:53;;;;;;;23.75;9.60;;;;;;;;;;5056211;28;20455;-80
2023/07/03 05:05:20;;;;;;;;;;;;;;;;;;5046735;28;20373;-79
2023/07/03 05:07:46;;;;;;;21.65;8.38;;;;;;;;;;5062707;28;19939;-79
2023/07/03 05:10:13;;;;;;;21.40;9.07;;;;;;;;;;5056205;28;20029;-77
2023/07/03 05:12:39;;;;;;;20.45;9.02;;;;;;;;;;5062817;28;20033;-79
2023/07/03 05:15:08;;;;;;;21.55;8.80;;;;;;;;;;5048464;28;20412;-78
2023/07/03 05:17:34;;;;;;;;;;;;;;;;;;5045342;28;20016;-79
2023/07/03 05:20:06;;;;;;;21.48;8.73;;;;;;;;;;5041057;28;19909;-80
2023/07/03 05:22:31;;;;;;;24.35;8.65;;;;;;;;;;5050616;28;20033;-79
2023/07/03 05:24:57;;;;;;;19.67;9.00;;;;;;;;;;5022660;28;20093;-78
2023/07/03 05:27:23;;;;;;;21.98;9.15;;;;;;;;;;5047621;28;20478;-78
2023/07/03 05:29:49;;;;;;;23.48;8.95;;;;;;;;;;5030793;28;20040;-78
2023/07/03 05:32:15;;;;;;;27.20;8.88;;;;;;;;;;5066361;28;20191;-78
2023/07/03 05:34:40;;;;;;;20.52;8.88;;;;;;;;;;5040604;28;20148;-79
2023/07/03 05:37:06;;;;;;;23.33;8.85;;;;;;;;;;5069131;28;20100;-79
2023/07/03 05:39:32;;;;;;;18.48;7.95;;;;;;;;;;5032232;28;20073;-80
2023/07/03 05:41:57;;;;;;;20.10;7.55;;;;;;;;;;5062216;28;20077;-79
2023/07/03 05:44:23;;;;;;;24.85;7.35;;;;;;;;;;5071234;28;20025;-77
2023/07/03 05:46:49;;;;;;;16.20;6.97;;;;;;;;;;5054384;28;20407;-77
2023/07/03 05:49:15;;;;;;;20.00;6.78;;;;;;;;;;5067966;28;20025;-78
2023/07/03 05:51:41;;;;;;;21.98;7.22;;;;;;;;;;5067149;28;20024;-79
2023/07/03 05:54:06;;;;;;;13.05;5.90;;;;;;;;;;5059636;28;20410;-78
2023/07/03 05:56:32;;;;;;;20.65;6.70;;;;;;;;;;5061056;28;20025;-80
2023/07/03 05:58:58;;;;;;;18.27;6.03;;;;;;;;;;5072779;28;20498;-80
2023/07/03 06:01:23;;;;;;;16.85;5.68;;;;;;;;;;5066335;28;20032;-79
2023/07/03 06:03:49;;;;;;;21.42;5.95;;;;;;;;;;5078782;28;20125;-80
2023/07/03 06:06:15;;;;;;;18.50;5.30;;;;;;;;;;5077416;22;20055;-78
2023/07/03 06:08:41;;;;;;;13.20;5.10;;;;;;;;;;5037577;28;21474;-78
2023/07/03 06:11:07;;;;;;;17.75;5.43;;;;;;;;;;5060597;28;20425;-79
2023/07/03 06:13:32;;;;;;;19.17;5.18;;;;;;;;;;5050372;28;20549;-78
2023/07/03 06:15:57;;;;;;;14.57;5.95;;;;;;;;;;5061273;28;20032;-78
2023/07/03 06:18:23;;;;;;;14.90;5.07;;;;;;;;;;5054932;28;20029;-78
2023/07/03 06:20:49;;;;;;;17.63;4.82;;;;;;;;;;5053961;28;20029;-78
2023/07/03 06:23:17;;;;;;;12.40;4.32;;;;;;;;;;5055034;28;20149;-78
2023/07/03 06:25:42;;;;;;;18.92;5.15;;;;;;;;;;5037259;28;20029;-79
2023/07/03 06:28:08;;;;;;;16.00;5.57;;;;;;;;;;5055346;28;20484;-79
2023/07/03 06:30:33;;;;;;;14.50;4.57;;;;;;;;;;5042887;28;20401;-80
2023/07/03 06:32:59;;;;;;;13.40;4.53;;;;;;;;;;5055594;28;20025;-78
2023/07/03 06:35:25;;;;;;;19.00;5.10;;;;;;;;;;5054439;28;20024;-79
2023/07/03 06:37:56;;;;;;;13.43;5.03;;;;;;;;;;5056419;28;20126;-78
2023/07/03 06:40:21;;;;;;;13.18;5.10;;;;;;;;;;5024862;28;20025;-77
2023/07/03 06:42:47;;;;;;;22.48;5.75;;;;;;;;;;5024866;28;20511;-79
2023/07/03 06:45:17;;;;;;;17.58;5.35;;;;;;;;;;5058145;28;20089;-78
2023/07/03 06:47:43;;;;;;;17.58;5.38;;;;;;;;;;5039086;28;20056;-78
2023/07/03 06:50:08;;;;;;;18.25;5.25;;;;;;;;;;5056419;28;20028;-78
2023/07/03 06:52:35;;;;;;;17.02;4.88;;;;;;;;;;5052770;28;20036;-78
2023/07/03 06:55:01;;;;;;;14.27;4.93;;;;;;;;;;5053320;28;20029;-79
2023/07/03 06:57:27;;;;;;;13.10;4.45;;;;;;;;;;5054143;28;20024;-78
2023/07/03 06:59:52;;;;;;;16.67;3.85;;;;;;;;;;5053589;28;20021;-78
2023/07/03 07:02:18;;;;;;;20.17;3.85;;;;;;;;;;5053727;28;20040;-78
2023/07/03 07:04:45;;;;;;;12.60;3.22;;;;;;;;;;5055052;28;20036;-79
2023/07/03 07:07:10;;;;;;;15.75;3.97;;;;;;;;;;5054582;28;20028;-79
2023/07/03 07:09:36;;;;;;;26.95;5.25;;;;;;;;;;5054906;28;20384;-77
2023/07/03 07:12:01;;;;;;;17.67;3.60;;;;;;;;;;5035445;28;20040;-78
2023/07/03 07:14:27;;;;;;;14.82;3.63;;;;;;;;;;5051130;28;20029;-78
2023/07/03 07:16:52;;;;;;;17.27;3.70;;;;;;;;;;5039216;28;20056;-79
2023/07/03 07:19:18;;;;;;;17.58;4.45;;;;;;;;;;5056780;28;20021;-78
2023/07/03 07:21:44;;;;;;;16.20;3.70;;;;;;;;;;5056774;28;20111;-79
2023/07/03 07:24:16;;;;;;;16.23;3.70;;;;;;;;;;5055332;28;20064;-79
2023/07/03 07:26:42;;;;;;;22.05;3.90;;;;;;;;;;5053037;28;20430;-79
2023/07/03 07:29:08;;;;;;;13.43;3.67;;;;;;;;;;5054014;28;20082;-80
2023/07/03 07:31:36;;;;;;;16.88;3.90;;;;;;;;;;5052230;28;20029;-79
2023/07/03 07:34:02;;;;;;;;;;;;;;;;;;5035991;28;20033;-78
2023/07/03 07:36:27;;;;;;;13.75;3.40;;;;;;;;;;5054365;28;19909;-89
2023/07/03 07:38:53;;;;;;;17.45;5.30;;;;;;;;;;5032254;28;20032;-91
2023/07/03 07:41:19;;;;;;;18.40;4.47;;;;;;;;;;5040749;28;20059;-90
2023/07/03 07:43:58;;;;;;;18.75;6.18;;;;;;;;;;5050132;28;20029;-89
2023/07/03 07:46:26;;;;;;;13.65;3.83;;;;;;;;;;5033596;28;20094;-91
2023/07/03 07:48:51;;;;;;;9.60;2.92;;;;;;;;;;5023880;28;20025;-86
2023/07/03 07:51:17;;;;;;;12.52;3.92;;;;;;;;;;5056454;28;20506;-81
2023/07/03 07:53:42;;;;;;;10.98;3.00;;;;;;;;;;5052436;28;20029;-81
2023/07/03 07:56:09;;;;;;;10.73;2.78;;;;;;;;;;5051937;28;20377;-80
2023/07/03 07:58:35;;;;;;;15.70;3.70;;;;;;;;;;5050742;28;20024;-81
2023/07/03 08:01:00;;;;;;;9.20;2.80;;;;;;;;;;5060367;28;20526;-93
2023/07/03 08:03:26;;;;;;;13.65;4.10;;;;;;;;;;5027112;28;20032;-83
2023/07/03 08:06:00;;;;;;;13.40;3.20;;;;;;;;;;5057943;28;20048;-85
2023/07/03 08:08:26;;;;;;;11.77;3.00;;;;;;;;;;5052813;28;20060;-82
2023/07/03 08:10:55;;;;;;;15.82;3.40;;;;;;;;;;5037765;28;20029;-81
2023/07/03 08:13:21;;;;;;;16.65;3.80;;;;;;;;;;5016304;28;20128;-83
2023/07/03 08:15:47;;;;;;;12.93;3.47;;;;;;;;;;5037137;28;20554;-87
2023/07/03 08:18:14;;;;;;;9.60;3.22;;;;;;;;;;5022181;28;20127;-90
2023/07/03 08:20:43;;;;;;;13.25;3.40;;;;;;;;;;5021786;28;20048;-89
2023/07/03 08:23:09;;;;;;;18.98;3.63;;;;;;;;;;5058472;28;20021;-87
2023/07/03 08:25:35;;;;;;;9.90;3.28;;;;;;;;;;5037255;28;20032;-81
2023/07/03 08:28:00;;;;;;;9.77;2.47;;;;;;;;;;5052544;28;20029;-87
2023/07/03 08:30:28;;;;;;;11.45;3.25;;;;;;;;;;5018672;28;20436;-91
2023/07/03 08:32:54;;;;;;;12.32;3.42;;;;;;;;;;5010731;28;20028;-89
2023/07/03 08:35:40;;;;;;;10.65;3.33;;;;;;;;;;5025184;28;20025;-89
2023/07/03 08:38:44;;;;;;;11.43;3.30;;;;;;;;;;5035132;28;20033;-90
2023/07/03 08:41:38;;;;;;;13.15;3.05;;;;;;;;;;5044128;28;20036;-91
2023/07/03 08:44:28;;;;;;;12.43;3.17;;;;;;;;;;5042835;28;20171;-90
2023/07/03 08:47:17;;;;;;;12.30;3.30;;;;;;;;;;5028295;28;20045;-89
2023/07/03 08:50:05;;;;;;;13.20;2.83;;;;;;;;;;5047319;28;20040;-88
2023/07/03 08:56:33;;;;;;;12.73;2.88;;;;;;;;;;5062982;28;20166;-89
2023/07/03 08:59:39;;;;;;;;;;;;;;;;;;;;;
2023/07/03 09:02:29;;;;;;;9.70;3.33;;;;;;;;;;5044103;28;20037;-91
2023/07/03 09:05:35;;;;;;;9.30;2.90;;;;;;;;;;4999511;28;20378;-88
2023/07/03 09:08:15;;;;;;;;;;;;;;;;;;;;;
2023/07/03 09:10:52;;;;;;;14.50;3.83;;;;;;;;;;5042573;28;20029;-88
2023/07/03 09:13:46;;;;;;;9.20;3.00;;;;;;;;;;5014303;28;20034;-87
2023/07/03 09:16:12;;;;;;;13.82;3.22;;;;;;;;;;5026503;28;20265;-88
2023/07/03 09:18:42;;;;;;;14.38;3.42;;;;;;;;;;5061694;28;20029;-89
2023/07/03 09:21:08;;;;;;;11.27;2.83;;;;;;;;;;5030944;28;20075;-88
2023/07/03 09:23:40;;;;;;;10.23;2.83;;;;;;;;;;5047643;28;20041;-82
2023/07/03 09:26:11;;;;;;;7.90;2.83;;;;;;;;;;5032051;28;20033;-82
2023/07/03 09:28:44;;;;;;;9.93;3.40;;;;;;;;;;5061364;28;20093;-80
2023/07/03 09:31:10;;;;;;;6.50;2.38;;;;;;;;;;5054511;28;20116;-82
2023/07/03 09:33:36;;;;;;;11.25;3.00;;;;;;;;;;5026927;28;20037;-83
2023/07/03 09:36:18;;;;;;;8.82;2.70;;;;;;;;;;5056751;28;20040;-79
2023/07/03 09:38:44;;;;;;;8.25;2.40;;;;;;;;;;5050963;28;20044;-83
2023/07/03 09:41:10;;;;;;;9.75;2.38;;;;;;;;;;5051501;28;20052;-84
2023/07/03 09:43:42;;;;;;;11.65;2.30;;;;;;;;;;5053521;28;20396;-83
2023/07/03 09:46:14;;;;;;;8.40;2.58;;;;;;;;;;5036270;28;20120;-83
2023/07/03 09:48:40;;;;;;;9.35;2.45;;;;;;;;;;5051894;28;20424;-82
2023/07/03 09:51:17;;;;;;;8.48;2.60;;;;;;;;;;5035212;28;20029;-83
2023/07/03 09:53:42;;;;;;;7.53;2.10;;;;;;;;;;5034938;28;20112;-83
2023/07/03 09:56:11;;;;;;;11.50;2.50;;;;;;;;;;5034819;28;20150;-83
2023/07/03 09:58:43;;;;;;;8.27;2.10;;;;;;;;;;5034489;28;20033;-83
2023/07/03 10:01:15;;;;;;;9.48;2.33;;;;;;;;;;5034388;28;20452;-84
2023/07/03 10:03:41;;;;;;;10.00;2.28;;;;;;;;;;5035847;28;20118;-83
2023/07/03 10:06:14;;;;;;;12.55;2.40;;;;;;;;;;5037584;28;20036;-83
2023/07/03 10:08:50;;;;;;;12.13;2.72;;;;;;;;;;5031425;28;20045;-82
2023/07/03 10:11:22;;;;;;;12.18;2.67;;;;;;;;;;5037459;28;20087;-83
2023/07/03 10:13:48;;;;;;;12.80;2.38;;;;;;;;;;5030312;28;20044;-83
2023/07/03 10:16:15;;;;;;;11.80;2.70;;;;;;;;;;5017300;28;20029;-81
2023/07/03 10:18:46;;;;;;;8.07;2.40;;;;;;;;;;5050033;28;20108;-81
2023/07/03 10:21:13;;;;;;;144.85;77.32;;;;;;;;;;5053897;28;20044;-81
2023/07/03 10:23:40;;;;;;;17.83;8.77;;;;;;;;;;5024534;28;20036;-80
2023/07/03 10:26:11;;;;;;;7.47;2.40;;;;;;;;;;5057612;28;20048;-79
2023/07/03 10:28:38;;;;;;;8.35;2.42;;;;;;;;;;5035955;28;20196;-79
2023/07/03 10:31:08;;;;;;;7.85;2.60;;;;;;;;;;5024424;28;20107;-81
2023/07/03 10:33:38;;;;;;;14.82;3.20;;;;;;;;;;5006155;28;20064;-83
2023/07/03 10:36:28;;;;;;;10.38;2.58;;;;;;;;;;5050364;28;20033;-80
2023/07/03 10:39:00;;;;;;;6.60;2.15;;;;;;;;;;5054435;28;20021;-78
2023/07/03 10:41:31;;;;;;;7.70;2.08;;;;;;;;;;5036152;28;20043;-79
2023/07/03 10:44:00;;;;;;;12.43;2.40;;;;;;;;;;5053329;28;20036;-79
2023/07/03 10:46:43;;;;;;;7.32;2.00;;;;;;;;;;5040729;28;20469;-79
2023/07/03 10:49:11;;;;;;;10.43;2.40;;;;;;;;;;5025597;28;20030;-79
2023/07/03 10:51:52;;;;;;;11.82;2.50;;;;;;;;;;5033715;28;20029;-78
2023/07/03 10:54:21;;;;;;;9.25;2.50;;;;;;;;;;5018972;28;20049;-80
2023/07/03 10:56:47;;;;;;;;;;;;;;;;;;5021845;28;20464;-79
2023/07/03 10:59:21;;;;;;;8.82;2.13;;;;;;;;;;5054437;28;19909;-82
2023/07/03 11:01:50;;;;;;;8.48;2.33;;;;;;;;;;5037006;28;20037;-82
2023/07/03 11:04:19;;;;;;;5.65;2.30;;;;;;;;;;5020753;28;20047;-80
2023/07/03 11:06:48;;;;;;;9.98;2.30;;;;;;;;;;5041498;28;20025;-82
2023/07/03 11:09:25;;;;;;;18.40;3.22;;;;;;;;;;5053193;28;20158;-82
2023/07/03 11:11:54;;;;;;;11.60;2.43;;;;;;;;;;5054181;28;20356;-82
2023/07/03 11:14:26;;;;;;;27.75;16.08;;;;;;;;;;5048234;28;20507;-81
2023/07/03 11:17:10;;;;;;;20.20;11.88;;;;;;;;;;5022209;28;20476;-81
2023/07/03 11:19:43;;;;;;;15.00;3.95;;;;;;;;;;5053562;28;20029;-81
2023/07/03 11:22:08;;;;;;;11.95;3.33;;;;;;;;;;5054772;28;20063;-82
2023/07/03 11:24:49;;;;;;;11.10;2.50;;;;;;;;;;5054165;28;20366;-81
2023/07/03 11:27:38;;;;;;;16.48;3.03;;;;;;;;;;5054832;28;20025;-80
2023/07/03 11:30:16;;;;;;;11.50;2.97;;;;;;;;;;5043174;28;20156;-83
2023/07/03 11:32:43;;;;;;;8.90;2.45;;;;;;;;;;5051656;28;20115;-83
2023/07/03 11:35:09;;;;;;;9.38;2.63;;;;;;;;;;5058925;28;20032;-83
2023/07/03 11:37:48;;;;;;;7.28;2.65;;;;;;;;;;5038919;28;20048;-83
2023/07/03 11:40:23;;;;;;;6.45;2.65;;;;;;;;;;5062503;28;20087;-81
2023/07/03 11:42:53;;;;;;;9.07;2.30;;;;;;;;;;5028371;28;20480;-81
2023/07/03 11:45:29;;;;;;;9.13;2.83;;;;;;;;;;5040356;28;20119;-80
2023/07/03 11:47:55;;;;;;;6.53;2.35;;;;;;;;;;5029961;28;20466;-82
2023/07/03 11:50:31;;;;;;;10.23;2.58;;;;;;;;;;5030146;28;20037;-82
2023/07/03 11:52:56;;;;;;;8.60;2.50;;;;;;;;;;5022360;28;20029;-82
2023/07/03 11:55:34;;;;;;;13.13;2.47;;;;;;;;;;5035997;28;20083;-82
2023/07/03 11:57:59;;;;;;;13.82;2.92;;;;;;;;;;5053493;28;20100;-81
2023/07/03 12:00:28;;;;;;;9.00;2.30;;;;;;;;;;5055581;28;20047;-82
2023/07/03 12:02:56;;;;;;;6.82;2.30;;;;;;;;;;5040483;28;20029;-82
2023/07/03 12:08:29;;;;;;;10.63;2.55;;;;;;;;;;5027891;28;20049;-84
2023/07/03 12:10:55;;;;;;;6.93;2.25;;;;;;;;;;5010063;28;20042;-84
2023/07/03 12:13:27;;;;;;;9.38;2.33;;;;;;;;;;5021780;28;20033;-83
2023/07/03 12:15:57;;;;;;;11.95;2.45;;;;;;;;;;5016239;28;20029;-84
2023/07/03 12:18:22;;;;;;;8.05;2.53;;;;;;;;;;5013461;28;20140;-85
2023/07/03 12:20:55;;;;;;;7.30;2.20;;;;;;;;;;5004047;28;20049;-86
2023/07/03 12:23:33;;;;;;;13.30;2.83;;;;;;;;;;5015898;28;20026;-83
2023/07/03 12:25:59;;;;;;;11.38;2.67;;;;;;;;;;5013753;28;20030;-84
2023/07/03 12:28:25;;;;;;;11.10;2.70;;;;;;;;;;5013997;28;20496;-83
2023/07/03 12:30:50;;;;;;;9.90;2.47;;;;;;;;;;5014887;28;20030;-85
2023/07/03 12:33:19;;;;;;;11.30;2.25;;;;;;;;;;5015574;28;20022;-84
2023/07/03 12:35:45;;;;;;;8.98;2.38;;;;;;;;;;5012562;28;20428;-84
2023/07/03 12:38:10;;;;;;;8.23;2.28;;;;;;;;;;5014987;28;20064;-85
2023/07/03 12:40:43;;;;;;;8.85;2.30;;;;;;;;;;4998818;28;20030;-85
2023/07/03 12:43:09;;;;;;;12.38;2.78;;;;;;;;;;4982866;28;20030;-84
2023/07/03 12:45:35;;;;;;;10.18;2.53;;;;;;;;;;5015330;28;20025;-83
2023/07/03 12:48:01;;;;;;;9.85;2.45;;;;;;;;;;4999235;28;20256;-83
2023/07/03 12:50:27;;;;;;;10.55;2.13;;;;;;;;;;5015601;28;20124;-85
2023/07/03 12:52:59;;;;;;;11.52;2.47;;;;;;;;;;5004801;28;20065;-83
2023/07/03 12:55:25;;;;;;;8.80;2.63;;;;;;;;;;5000308;28;20035;-83
2023/07/03 12:57:52;;;;;;;11.07;2.53;;;;;;;;;;4982283;28;20086;-82
2023/07/03 13:00:29;;;;;;;12.20;2.85;;;;;;;;;;4985595;28;20044;-85
2023/07/03 13:02:58;;;;;;;6.60;1.95;;;;;;;;;;5018329;28;20250;-83
2023/07/03 13:05:24;;;;;;;7.95;2.50;;;;;;;;;;5003324;28;20069;-84
2023/07/03 13:07:50;;;;;;;12.23;2.22;;;;;;;;;;4994281;28;20042;-85
2023/07/03 13:10:20;;;;;;;7.95;2.38;;;;;;;;;;5012330;28;20374;-84
2023/07/03 13:13:01;;;;;;;12.82;2.63;;;;;;;;;;5022681;28;20041;-83
2023/07/03 13:15:34;;;;;;;5.82;2.22;;;;;;;;;;5002599;28;20508;-85
2023/07/03 13:18:05;;;;;;;9.68;2.40;;;;;;;;;;4997915;28;20028;-84
2023/07/03 13:20:30;;;;;;;10.75;2.60;;;;;;;;;;5014808;28;20022;-84
2023/07/03 13:22:58;;;;;;;8.32;2.53;;;;;;;;;;5013925;28;20117;-83
2023/07/03 13:25:25;;;;;;;9.30;2.50;;;;;;;;;;5015126;28;20033;-84
2023/07/03 13:27:51;;;;;;;9.05;2.35;;;;;;;;;;5013685;28;20057;-84
2023/07/03 13:30:18;;;;;;;11.20;3.33;;;;;;;;;;5014840;28;20033;-85
2023/07/03 13:33:10;;;;;;;8.45;2.30;;;;;;;;;;4998622;28;20038;-85
2023/07/03 13:35:42;;;;;;;12.82;3.15;;;;;;;;;;4996415;28;20505;-83
2023/07/03 13:38:26;;;;;;;12.82;3.15;;;;;;;;;;4997936;28;20029;-84
2023/07/03 13:40:52;;;;;;;9.65;2.40;;;;;;;;;;5015215;28;20065;-85
2023/07/03 13:43:23;;;;;;;9.45;2.55;;;;;;;;;;4998852;28;20394;-85
2023/07/03 13:45:50;;;;;;;10.40;2.50;;;;;;;;;;4997829;28;20441;-85
2023/07/03 13:48:15;;;;;;;10.23;2.40;;;;;;;;;;5016280;28;20018;-84
2023/07/03 13:50:41;;;;;;;11.45;2.55;;;;;;;;;;5019954;28;20026;-84
2023/07/03 13:53:08;;;;;;;10.63;2.42;;;;;;;;;;5024919;28;20034;-85
2023/07/03 13:55:33;;;;;;;9.82;2.22;;;;;;;;;;4999710;28;20035;-84
2023/07/03 13:57:59;;;;;;;9.07;2.70;;;;;;;;;;5014792;28;20022;-84
2023/07/03 14:00:26;;;;;;;8.30;2.65;;;;;;;;;;5032679;28;20034;-83
2023/07/03 14:02:51;;;;;;;10.20;2.47;;;;;;;;;;5004860;28;20045;-82
2023/07/03 14:05:18;;;;;;;12.43;2.58;;;;;;;;;;5013563;28;20030;-85
2023/07/03 14:07:43;;;;;;;15.57;2.35;;;;;;;;;;5014190;28;20045;-84
2023/07/03 14:10:09;;;;;;;10.77;2.85;;;;;;;;;;5016510;28;20080;-85
2023/07/03 14:12:35;;;;;;;13.93;2.95;;;;;;;;;;4997237;28;20080;-85
2023/07/03 14:15:02;;;;;;;7.18;2.13;;;;;;;;;;5027936;28;20049;-84
2023/07/03 14:17:28;;;;;;;14.70;2.75;;;;;;;;;;5018075;28;20033;-84
2023/07/03 14:19:53;;;;;;;10.38;2.90;;;;;;;;;;5016928;28;20030;-85
2023/07/03 14:22:19;;;;;;;9.77;2.80;;;;;;;;;;5017635;28;20036;-84
2023/07/03 14:24:45;;;;;;;12.52;3.00;;;;;;;;;;4997791;28;20037;-84
2023/07/03 14:27:10;;;;;;;12.80;2.80;;;;;;;;;;5028723;28;20169;-83
2023/07/03 14:29:36;;;;;;;10.90;2.58;;;;;;;;;;5018173;28;20070;-84
2023/07/03 14:32:01;;;;;;;11.35;2.80;;;;;;;;;;5017005;28;20030;-85
2023/07/03 14:34:27;;;;;;;8.70;2.45;;;;;;;;;;5013301;28;20559;-85
2023/07/03 14:36:52;;;;;;;16.88;2.92;;;;;;;;;;5016336;28;20052;-84
2023/07/03 14:39:18;;;;;;;12.82;2.60;;;;;;;;;;5013265;28;20401;-83
2023/07/03 14:41:43;;;;;;;9.13;2.70;;;;;;;;;;5018007;28;20445;-83
2023/07/03 14:44:09;;;;;;;11.02;2.80;;;;;;;;;;5021342;28;20084;-83
2023/07/03 14:46:34;;;;;;;13.35;2.83;;;;;;;;;;5020495;28;20120;-85
2023/07/03 14:49:00;;;;;;;9.63;3.05;;;;;;;;;;5035522;28;20037;-85
2023/07/03 14:51:26;;;;;;;9.73;2.33;;;;;;;;;;4997736;28;20057;-85